sensor_id;sensor_type;location;lat;lon;timestamp;temperature;humidity
59148;DHT22;44930;52.878;6.168;2022-08-20T00:00:21;20.30;99.90
59148;DHT22;44930;52.878;6.168;2022-08-20T00:02:56;18.90;99.90
59148;DHT22;44930;52.878;6.168;2022-08-20T00:05:44;19.80;99.90
59148;DHT22;44930;52.878;6.168;2022-08-20T00:08:10;18.90;99.90
59148;DHT22;44930;52.878;6.168;2022-08-20T00:10:39;18.70;99.90
59148;DHT22;44930;52.878;6.168;2022-08-20T00:13:07;18.80;99.90
59148;DHT22;44930;52.878;6.168;2022-08-20T00:15:34;18.40;99.90
59148;DHT22;44930;52.878;6.168;2022-08-20T00:18:01;18.90;99.90
59148;DHT22;44930;52.878;6.168;2022-08-20T00:20:29;18.90;99.90
59148;DHT22;44930;52.878;6.168;2022-08-20T00:22:56;18.90;99.90
59148;DHT22;44930;52.878;6.168;2022-08-20T00:25:23;18.50;99.90
59148;DHT22;44930;52.878;6.168;2022-08-20T00:27:49;18.60;99.90
59148;DHT22;44930;52.878;6.168;2022-08-20T00:30:15;18.80;99.90
59148;DHT22;44930;52.878;6.168;2022-08-20T00:32:46;19.00;99.90
59148;DHT22;44930;52.878;6.168;2022-08-20T00:35:14;18.80;99.90
59148;DHT22;44930;52.878;6.168;2022-08-20T00:37:40;18.70;99.90
59148;DHT22;44930;52.878;6.168;2022-08-20T00:40:07;18.50;99.90
59148;DHT22;44930;52.878;6.168;2022-08-20T00:42:41;18.70;99.90
59148;DHT22;44930;52.878;6.168;2022-08-20T00:45:07;18.60;99.90
59148;DHT22;44930;52.878;6.168;2022-08-20T00:47:33;18.50;99.90
59148;DHT22;44930;52.878;6.168;2022-08-20T00:49:59;18.90;99.90
59148;DHT22;44930;52.878;6.168;2022-08-20T00:52:24;18.50;99.90
59148;DHT22;44930;52.878;6.168;2022-08-20T00:54:56;19.50;99.90
59148;DHT22;44930;52.878;6.168;2022-08-20T00:57:30;18.50;99.90
59148;DHT22;44930;52.878;6.168;2022-08-20T00:59:58;18.50;99.90
59148;DHT22;44930;52.878;6.168;2022-08-20T01:02:25;19.00;99.90
59148;DHT22;44930;52.878;6.168;2022-08-20T01:04:53;18.20;99.90
59148;DHT22;44930;52.878;6.168;2022-08-20T01:07:24;18.50;99.90
59148;DHT22;44930;52.878;6.168;2022-08-20T01:09:58;18.60;99.90
59148;DHT22;44930;52.878;6.168;2022-08-20T01:12:26;18.50;99.90
59148;DHT22;44930;52.878;6.168;2022-08-20T01:14:54;18.60;99.90
59148;DHT22;44930;52.878;6.168;2022-08-20T01:17:24;18.50;99.90
59148;DHT22;44930;52.878;6.168;2022-08-20T01:19:58;18.40;99.90
59148;DHT22;44930;52.878;6.168;2022-08-20T01:28:29;18.50;99.90
59148;DHT22;44930;52.878;6.168;2022-08-20T01:30:56;18.50;99.90
59148;DHT22;44930;52.878;6.168;2022-08-20T01:33:22;18.40;99.90
59148;DHT22;44930;52.878;6.168;2022-08-20T01:35:49;18.20;99.90
59148;DHT22;44930;52.878;6.168;2022-08-20T01:38:15;18.80;99.90
59148;DHT22;44930;52.878;6.168;2022-08-20T01:43:50;18.80;99.90
59148;DHT22;44930;52.878;6.168;2022-08-20T01:46:25;18.20;99.90
59148;DHT22;44930;52.878;6.168;2022-08-20T01:48:55;18.40;99.90
59148;DHT22;44930;52.878;6.168;2022-08-20T01:51:24;18.10;99.90
59148;DHT22;44930;52.878;6.168;2022-08-20T01:53:53;18.00;99.90
59148;DHT22;44930;52.878;6.168;2022-08-20T01:56:23;18.30;99.90
59148;DHT22;44930;52.878;6.168;2022-08-20T01:58:51;18.50;99.90
59148;DHT22;44930;52.878;6.168;2022-08-20T02:01:31;18.00;99.90
59148;DHT22;44930;52.878;6.168;2022-08-20T02:03:58;19.70;99.90
59148;DHT22;44930;52.878;6.168;2022-08-20T02:06:26;18.20;99.90
59148;DHT22;44930;52.878;6.168;2022-08-20T02:08:54;18.20;99.90
59148;DHT22;44930;52.878;6.168;2022-08-20T02:11:21;18.10;99.90
59148;DHT22;44930;52.878;6.168;2022-08-20T02:13:47;18.10;99.90
59148;DHT22;44930;52.878;6.168;2022-08-20T02:16:21;17.80;99.90
59148;DHT22;44930;52.878;6.168;2022-08-20T02:18:49;17.80;99.90
59148;DHT22;44930;52.878;6.168;2022-08-20T02:21:19;18.00;99.90
59148;DHT22;44930;52.878;6.168;2022-08-20T02:23:45;18.00;99.90
59148;DHT22;44930;52.878;6.168;2022-08-20T02:26:11;18.40;99.90
59148;DHT22;44930;52.878;6.168;2022-08-20T02:28:36;18.10;99.90
59148;DHT22;44930;52.878;6.168;2022-08-20T02:31:02;18.00;99.90
59148;DHT22;44930;52.878;6.168;2022-08-20T02:33:32;17.80;99.90
59148;DHT22;44930;52.878;6.168;2022-08-20T02:35:58;17.60;99.90
59148;DHT22;44930;52.878;6.168;2022-08-20T02:38:24;18.10;99.90
59148;DHT22;44930;52.878;6.168;2022-08-20T02:40:49;17.30;99.90
59148;DHT22;44930;52.878;6.168;2022-08-20T02:43:16;17.70;99.90
59148;DHT22;44930;52.878;6.168;2022-08-20T02:45:43;17.70;99.90
59148;DHT22;44930;52.878;6.168;2022-08-20T02:48:11;17.90;99.90
59148;DHT22;44930;52.878;6.168;2022-08-20T02:50:42;18.00;99.90
59148;DHT22;44930;52.878;6.168;2022-08-20T02:53:08;17.70;99.90
59148;DHT22;44930;52.878;6.168;2022-08-20T02:55:34;17.50;99.90
59148;DHT22;44930;52.878;6.168;2022-08-20T02:57:59;17.70;99.90
59148;DHT22;44930;52.878;6.168;2022-08-20T03:00:27;18.20;99.90
59148;DHT22;44930;52.878;6.168;2022-08-20T03:02:55;17.50;99.90
59148;DHT22;44930;52.878;6.168;2022-08-20T03:05:21;17.50;99.90
59148;DHT22;44930;52.878;6.168;2022-08-20T03:07:51;17.50;99.90
59148;DHT22;44930;52.878;6.168;2022-08-20T03:10:26;18.30;99.90
59148;DHT22;44930;52.878;6.168;2022-08-20T03:12:52;17.60;99.90
59148;DHT22;44930;52.878;6.168;2022-08-20T03:15:18;17.90;99.90
59148;DHT22;44930;52.878;6.168;2022-08-20T03:17:45;18.10;99.90
59148;DHT22;44930;52.878;6.168;2022-08-20T03:20:11;17.70;99.90
59148;DHT22;44930;52.878;6.168;2022-08-20T03:22:37;17.50;99.90
59148;DHT22;44930;52.878;6.168;2022-08-20T03:25:03;18.00;99.90
59148;DHT22;44930;52.878;6.168;2022-08-20T03:27:29;17.60;99.90
59148;DHT22;44930;52.878;6.168;2022-08-20T03:29:55;17.80;99.90
59148;DHT22;44930;52.878;6.168;2022-08-20T03:32:20;17.60;99.90
59148;DHT22;44930;52.878;6.168;2022-08-20T03:34:46;17.50;99.90
59148;DHT22;44930;52.878;6.168;2022-08-20T03:37:12;17.50;99.90
59148;DHT22;44930;52.878;6.168;2022-08-20T03:39:38;17.70;99.90
59148;DHT22;44930;52.878;6.168;2022-08-20T03:42:05;17.40;99.90
59148;DHT22;44930;52.878;6.168;2022-08-20T03:44:31;17.90;99.90
59148;DHT22;44930;52.878;6.168;2022-08-20T03:46:56;17.30;99.90
59148;DHT22;44930;52.878;6.168;2022-08-20T03:49:22;17.50;99.90
59148;DHT22;44930;52.878;6.168;2022-08-20T03:51:49;17.70;99.90
59148;DHT22;44930;52.878;6.168;2022-08-20T03:54:15;17.40;99.90
59148;DHT22;44930;52.878;6.168;2022-08-20T03:56:41;17.30;99.90
59148;DHT22;44930;52.878;6.168;2022-08-20T03:59:07;17.20;99.90
59148;DHT22;44930;52.878;6.168;2022-08-20T04:01:33;18.60;99.90
59148;DHT22;44930;52.878;6.168;2022-08-20T04:03:59;17.60;99.90
59148;DHT22;44930;52.878;6.168;2022-08-20T04:06:25;17.50;99.90
59148;DHT22;44930;52.878;6.168;2022-08-20T04:08:52;17.60;99.90
59148;DHT22;44930;52.878;6.168;2022-08-20T04:11:18;17.50;99.90
59148;DHT22;44930;52.878;6.168;2022-08-20T04:13:43;17.20;99.90
59148;DHT22;44930;52.878;6.168;2022-08-20T04:16:09;17.50;99.90
59148;DHT22;44930;52.878;6.168;2022-08-20T04:18:35;17.70;99.90
59148;DHT22;44930;52.878;6.168;2022-08-20T04:21:02;17.40;99.90
59148;DHT22;44930;52.878;6.168;2022-08-20T04:23:28;17.20;99.90
59148;DHT22;44930;52.878;6.168;2022-08-20T04:25:56;17.20;99.90
59148;DHT22;44930;52.878;6.168;2022-08-20T04:28:22;17.20;99.90
59148;DHT22;44930;52.878;6.168;2022-08-20T04:30:50;17.50;99.90
59148;DHT22;44930;52.878;6.168;2022-08-20T04:33:17;16.90;99.90
59148;DHT22;44930;52.878;6.168;2022-08-20T04:35:42;17.40;99.90
59148;DHT22;44930;52.878;6.168;2022-08-20T04:38:16;17.30;99.90
59148;DHT22;44930;52.878;6.168;2022-08-20T04:40:43;17.30;99.90
59148;DHT22;44930;52.878;6.168;2022-08-20T04:43:18;17.00;99.90
59148;DHT22;44930;52.878;6.168;2022-08-20T04:45:45;17.10;99.90
59148;DHT22;44930;52.878;6.168;2022-08-20T04:48:12;17.30;99.90
59148;DHT22;44930;52.878;6.168;2022-08-20T04:50:41;17.20;99.90
59148;DHT22;44930;52.878;6.168;2022-08-20T04:53:09;17.00;99.90
59148;DHT22;44930;52.878;6.168;2022-08-20T04:55:37;17.10;99.90
59148;DHT22;44930;52.878;6.168;2022-08-20T04:58:05;17.20;99.90
59148;DHT22;44930;52.878;6.168;2022-08-20T05:00:31;17.20;99.90
59148;DHT22;44930;52.878;6.168;2022-08-20T05:02:57;17.00;99.90
59148;DHT22;44930;52.878;6.168;2022-08-20T05:05:22;16.80;99.90
59148;DHT22;44930;52.878;6.168;2022-08-20T05:07:48;17.30;99.90
59148;DHT22;44930;52.878;6.168;2022-08-20T05:10:16;16.50;99.90
59148;DHT22;44930;52.878;6.168;2022-08-20T05:12:43;16.90;99.90
59148;DHT22;44930;52.878;6.168;2022-08-20T05:15:10;17.20;99.90
59148;DHT22;44930;52.878;6.168;2022-08-20T05:17:37;17.30;99.90
59148;DHT22;44930;52.878;6.168;2022-08-20T05:20:05;16.70;99.90
59148;DHT22;44930;52.878;6.168;2022-08-20T05:22:31;17.20;99.90
59148;DHT22;44930;52.878;6.168;2022-08-20T05:24:57;16.70;99.90
59148;DHT22;44930;52.878;6.168;2022-08-20T05:27:26;16.50;99.90
59148;DHT22;44930;52.878;6.168;2022-08-20T05:29:53;16.70;99.90
59148;DHT22;44930;52.878;6.168;2022-08-20T05:32:20;16.40;99.90
59148;DHT22;44930;52.878;6.168;2022-08-20T05:34:46;16.80;99.90
59148;DHT22;44930;52.878;6.168;2022-08-20T05:37:12;16.50;99.90
59148;DHT22;44930;52.878;6.168;2022-08-20T05:39:38;16.90;99.90
59148;DHT22;44930;52.878;6.168;2022-08-20T05:42:04;16.90;99.90
59148;DHT22;44930;52.878;6.168;2022-08-20T05:44:29;16.90;99.90
59148;DHT22;44930;52.878;6.168;2022-08-20T05:46:55;16.50;99.90
59148;DHT22;44930;52.878;6.168;2022-08-20T05:49:21;17.10;99.90
59148;DHT22;44930;52.878;6.168;2022-08-20T05:51:48;16.80;99.90
59148;DHT22;44930;52.878;6.168;2022-08-20T05:54:15;16.90;99.90
59148;DHT22;44930;52.878;6.168;2022-08-20T05:56:41;16.80;99.90
59148;DHT22;44930;52.878;6.168;2022-08-20T05:59:07;17.00;99.90
59148;DHT22;44930;52.878;6.168;2022-08-20T06:01:35;17.40;99.90
59148;DHT22;44930;52.878;6.168;2022-08-20T06:04:01;17.00;99.90
59148;DHT22;44930;52.878;6.168;2022-08-20T06:06:46;17.10;99.90
59148;DHT22;44930;52.878;6.168;2022-08-20T06:09:12;17.00;99.90
59148;DHT22;44930;52.878;6.168;2022-08-20T06:11:38;16.90;99.90
59148;DHT22;44930;52.878;6.168;2022-08-20T06:14:04;17.20;99.90
59148;DHT22;44930;52.878;6.168;2022-08-20T06:16:29;17.20;99.90
59148;DHT22;44930;52.878;6.168;2022-08-20T06:18:55;17.30;99.90
59148;DHT22;44930;52.878;6.168;2022-08-20T06:21:20;17.40;99.90
59148;DHT22;44930;52.878;6.168;2022-08-20T06:23:46;16.90;99.90
59148;DHT22;44930;52.878;6.168;2022-08-20T06:26:12;17.10;99.90
59148;DHT22;44930;52.878;6.168;2022-08-20T06:28:37;17.40;99.90
59148;DHT22;44930;52.878;6.168;2022-08-20T06:31:03;17.50;99.90
59148;DHT22;44930;52.878;6.168;2022-08-20T06:33:29;17.20;99.90
59148;DHT22;44930;52.878;6.168;2022-08-20T06:35:54;17.50;99.90
59148;DHT22;44930;52.878;6.168;2022-08-20T06:38:20;17.40;99.90
59148;DHT22;44930;52.878;6.168;2022-08-20T06:40:45;17.60;99.90
59148;DHT22;44930;52.878;6.168;2022-08-20T06:43:11;17.90;99.90
59148;DHT22;44930;52.878;6.168;2022-08-20T06:45:38;17.90;99.90
59148;DHT22;44930;52.878;6.168;2022-08-20T06:48:09;17.80;99.90
59148;DHT22;44930;52.878;6.168;2022-08-20T06:50:38;17.40;99.90
59148;DHT22;44930;52.878;6.168;2022-08-20T06:53:09;17.70;99.90
59148;DHT22;44930;52.878;6.168;2022-08-20T06:55:36;17.50;99.90
59148;DHT22;44930;52.878;6.168;2022-08-20T06:58:05;17.80;99.90
59148;DHT22;44930;52.878;6.168;2022-08-20T07:00:32;17.20;99.90
59148;DHT22;44930;52.878;6.168;2022-08-20T07:02:59;17.40;99.90
59148;DHT22;44930;52.878;6.168;2022-08-20T07:05:30;17.70;99.90
59148;DHT22;44930;52.878;6.168;2022-08-20T07:07:56;17.50;99.90
59148;DHT22;44930;52.878;6.168;2022-08-20T07:10:23;18.90;99.90
59148;DHT22;44930;52.878;6.168;2022-08-20T07:12:49;17.90;99.90
59148;DHT22;44930;52.878;6.168;2022-08-20T07:15:18;17.70;99.90
59148;DHT22;44930;52.878;6.168;2022-08-20T07:18:00;17.80;99.90
59148;DHT22;44930;52.878;6.168;2022-08-20T07:20:27;17.50;99.90
59148;DHT22;44930;52.878;6.168;2022-08-20T07:22:53;17.60;99.90
59148;DHT22;44930;52.878;6.168;2022-08-20T07:25:20;18.00;99.90
59148;DHT22;44930;52.878;6.168;2022-08-20T07:27:47;17.80;99.90
59148;DHT22;44930;52.878;6.168;2022-08-20T07:30:22;17.70;99.90
59148;DHT22;44930;52.878;6.168;2022-08-20T07:33:07;18.10;99.90
59148;DHT22;44930;52.878;6.168;2022-08-20T07:35:34;17.70;99.90
59148;DHT22;44930;52.878;6.168;2022-08-20T07:37:59;18.20;99.90
59148;DHT22;44930;52.878;6.168;2022-08-20T07:40:30;18.50;99.90
59148;DHT22;44930;52.878;6.168;2022-08-20T07:42:58;18.20;99.90
59148;DHT22;44930;52.878;6.168;2022-08-20T07:45:26;18.10;99.90
59148;DHT22;44930;52.878;6.168;2022-08-20T07:47:52;18.60;99.90
59148;DHT22;44930;52.878;6.168;2022-08-20T07:50:21;18.20;99.90
59148;DHT22;44930;52.878;6.168;2022-08-20T07:52:47;18.30;99.90
59148;DHT22;44930;52.878;6.168;2022-08-20T07:55:16;18.30;99.90
59148;DHT22;44930;52.878;6.168;2022-08-20T07:57:43;18.30;99.90
59148;DHT22;44930;52.878;6.168;2022-08-20T08:00:11;18.40;99.90
59148;DHT22;44930;52.878;6.168;2022-08-20T08:02:38;18.70;99.90
59148;DHT22;44930;52.878;6.168;2022-08-20T08:05:04;18.80;99.90
59148;DHT22;44930;52.878;6.168;2022-08-20T08:07:31;19.00;99.90
59148;DHT22;44930;52.878;6.168;2022-08-20T08:09:58;18.70;99.90
59148;DHT22;44930;52.878;6.168;2022-08-20T08:12:27;18.60;99.90
59148;DHT22;44930;52.878;6.168;2022-08-20T08:14:57;19.20;99.90
59148;DHT22;44930;52.878;6.168;2022-08-20T08:17:22;19.00;99.90
59148;DHT22;44930;52.878;6.168;2022-08-20T08:19:49;19.00;99.90
59148;DHT22;44930;52.878;6.168;2022-08-20T08:22:16;19.20;99.90
59148;DHT22;44930;52.878;6.168;2022-08-20T08:24:43;19.10;99.90
59148;DHT22;44930;52.878;6.168;2022-08-20T08:27:12;19.10;99.90
59148;DHT22;44930;52.878;6.168;2022-08-20T08:29:38;18.90;99.90
59148;DHT22;44930;52.878;6.168;2022-08-20T08:32:04;19.10;99.90
59148;DHT22;44930;52.878;6.168;2022-08-20T08:34:32;19.30;99.90
59148;DHT22;44930;52.878;6.168;2022-08-20T08:36:57;19.20;99.90
59148;DHT22;44930;52.878;6.168;2022-08-20T08:39:31;19.50;99.90
59148;DHT22;44930;52.878;6.168;2022-08-20T08:41:58;19.70;99.90
59148;DHT22;44930;52.878;6.168;2022-08-20T08:44:28;19.70;99.90
59148;DHT22;44930;52.878;6.168;2022-08-20T08:47:07;20.00;99.90
59148;DHT22;44930;52.878;6.168;2022-08-20T08:49:38;20.00;99.90
59148;DHT22;44930;52.878;6.168;2022-08-20T08:52:18;20.10;99.90
59148;DHT22;44930;52.878;6.168;2022-08-20T08:54:47;19.70;99.90
59148;DHT22;44930;52.878;6.168;2022-08-20T08:57:13;20.10;99.90
59148;DHT22;44930;52.878;6.168;2022-08-20T08:59:43;20.10;99.90
59148;DHT22;44930;52.878;6.168;2022-08-20T09:02:20;20.20;99.90
59148;DHT22;44930;52.878;6.168;2022-08-20T09:04:46;20.60;99.90
59148;DHT22;44930;52.878;6.168;2022-08-20T09:07:14;20.50;99.90
59148;DHT22;44930;52.878;6.168;2022-08-20T09:09:43;21.10;99.90
59148;DHT22;44930;52.878;6.168;2022-08-20T09:12:20;19.80;99.90
59148;DHT22;44930;52.878;6.168;2022-08-20T09:14:47;20.50;99.90
59148;DHT22;44930;52.878;6.168;2022-08-20T09:17:18;20.20;99.90
59148;DHT22;44930;52.878;6.168;2022-08-20T09:19:44;20.60;99.90
59148;DHT22;44930;52.878;6.168;2022-08-20T09:22:15;20.70;99.90
59148;DHT22;44930;52.878;6.168;2022-08-20T09:24:41;21.10;99.90
59148;DHT22;44930;52.878;6.168;2022-08-20T09:27:07;21.20;99.90
59148;DHT22;44930;52.878;6.168;2022-08-20T09:29:33;21.20;99.90
59148;DHT22;44930;52.878;6.168;2022-08-20T09:32:07;20.90;99.90
59148;DHT22;44930;52.878;6.168;2022-08-20T09:34:40;21.40;99.90
59148;DHT22;44930;52.878;6.168;2022-08-20T09:37:06;21.30;99.90
59148;DHT22;44930;52.878;6.168;2022-08-20T09:39:32;21.50;99.90
59148;DHT22;44930;52.878;6.168;2022-08-20T09:42:26;21.30;99.90
59148;DHT22;44930;52.878;6.168;2022-08-20T09:44:52;21.70;99.90
59148;DHT22;44930;52.878;6.168;2022-08-20T09:47:18;21.10;99.90
59148;DHT22;44930;52.878;6.168;2022-08-20T09:49:44;21.90;99.90
59148;DHT22;44930;52.878;6.168;2022-08-20T09:52:22;21.70;99.90
59148;DHT22;44930;52.878;6.168;2022-08-20T09:54:49;22.10;99.90
59148;DHT22;44930;52.878;6.168;2022-08-20T09:57:16;21.90;99.90
59148;DHT22;44930;52.878;6.168;2022-08-20T09:59:42;21.90;99.90
59148;DHT22;44930;52.878;6.168;2022-08-20T10:02:08;22.00;99.90
59148;DHT22;44930;52.878;6.168;2022-08-20T10:04:33;21.70;99.90
59148;DHT22;44930;52.878;6.168;2022-08-20T10:06:59;21.70;99.90
59148;DHT22;44930;52.878;6.168;2022-08-20T10:09:25;21.50;99.90
59148;DHT22;44930;52.878;6.168;2022-08-20T10:11:50;22.60;99.90
59148;DHT22;44930;52.878;6.168;2022-08-20T10:14:16;22.40;99.90
59148;DHT22;44930;52.878;6.168;2022-08-20T10:16:41;22.10;99.90
59148;DHT22;44930;52.878;6.168;2022-08-20T10:19:07;23.60;99.90
59148;DHT22;44930;52.878;6.168;2022-08-20T10:21:33;22.40;99.90
59148;DHT22;44930;52.878;6.168;2022-08-20T10:23:58;22.50;99.90
59148;DHT22;44930;52.878;6.168;2022-08-20T10:26:25;23.70;99.90
59148;DHT22;44930;52.878;6.168;2022-08-20T10:28:50;22.60;99.90
59148;DHT22;44930;52.878;6.168;2022-08-20T10:31:16;22.60;99.90
59148;DHT22;44930;52.878;6.168;2022-08-20T10:33:42;22.70;99.90
59148;DHT22;44930;52.878;6.168;2022-08-20T10:36:13;22.00;99.90
59148;DHT22;44930;52.878;6.168;2022-08-20T10:38:40;22.30;99.90
59148;DHT22;44930;52.878;6.168;2022-08-20T10:41:06;22.00;99.90
59148;DHT22;44930;52.878;6.168;2022-08-20T10:43:32;21.80;99.90
59148;DHT22;44930;52.878;6.168;2022-08-20T10:45:58;22.70;99.90
59148;DHT22;44930;52.878;6.168;2022-08-20T10:48:23;22.70;99.90
59148;DHT22;44930;52.878;6.168;2022-08-20T10:50:49;22.50;99.90
59148;DHT22;44930;52.878;6.168;2022-08-20T10:53:15;23.00;99.90
59148;DHT22;44930;52.878;6.168;2022-08-20T10:55:41;23.50;99.90
59148;DHT22;44930;52.878;6.168;2022-08-20T10:58:07;24.70;99.90
59148;DHT22;44930;52.878;6.168;2022-08-20T11:00:33;23.70;99.90
59148;DHT22;44930;52.878;6.168;2022-08-20T11:02:59;23.60;99.90
59148;DHT22;44930;52.878;6.168;2022-08-20T11:05:25;24.80;99.90
59148;DHT22;44930;52.878;6.168;2022-08-20T11:07:50;24.40;99.90
59148;DHT22;44930;52.878;6.168;2022-08-20T11:10:16;23.50;98.90
59148;DHT22;44930;52.878;6.168;2022-08-20T11:12:42;23.80;99.50
59148;DHT22;44930;52.878;6.168;2022-08-20T11:15:09;23.70;99.90
59148;DHT22;44930;52.878;6.168;2022-08-20T11:17:38;23.10;99.90
59148;DHT22;44930;52.878;6.168;2022-08-20T11:20:04;22.80;99.90
59148;DHT22;44930;52.878;6.168;2022-08-20T11:22:31;22.40;99.90
59148;DHT22;44930;52.878;6.168;2022-08-20T11:24:57;22.60;99.90
59148;DHT22;44930;52.878;6.168;2022-08-20T11:27:26;23.10;99.90
59148;DHT22;44930;52.878;6.168;2022-08-20T11:29:52;23.00;99.90
59148;DHT22;44930;52.878;6.168;2022-08-20T11:32:18;23.30;99.90
59148;DHT22;44930;52.878;6.168;2022-08-20T11:34:43;23.40;99.90
59148;DHT22;44930;52.878;6.168;2022-08-20T11:37:10;23.00;99.90
59148;DHT22;44930;52.878;6.168;2022-08-20T11:39:36;24.40;99.90
59148;DHT22;44930;52.878;6.168;2022-08-20T11:42:02;23.30;99.90
59148;DHT22;44930;52.878;6.168;2022-08-20T11:44:28;23.10;99.90
59148;DHT22;44930;52.878;6.168;2022-08-20T11:46:53;23.00;99.90
59148;DHT22;44930;52.878;6.168;2022-08-20T11:49:19;23.00;99.90
59148;DHT22;44930;52.878;6.168;2022-08-20T11:51:44;22.90;99.90
59148;DHT22;44930;52.878;6.168;2022-08-20T11:54:10;23.00;99.90
59148;DHT22;44930;52.878;6.168;2022-08-20T11:56:36;23.30;99.90
59148;DHT22;44930;52.878;6.168;2022-08-20T11:59:01;22.90;99.90
59148;DHT22;44930;52.878;6.168;2022-08-20T12:01:27;23.50;99.90
59148;DHT22;44930;52.878;6.168;2022-08-20T12:03:52;23.50;99.90
59148;DHT22;44930;52.878;6.168;2022-08-20T12:06:18;23.30;99.90
59148;DHT22;44930;52.878;6.168;2022-08-20T12:08:43;22.90;99.90
59148;DHT22;44930;52.878;6.168;2022-08-20T12:11:09;23.00;99.90
59148;DHT22;44930;52.878;6.168;2022-08-20T12:13:36;22.70;99.90
59148;DHT22;44930;52.878;6.168;2022-08-20T12:16:02;22.90;99.90
59148;DHT22;44930;52.878;6.168;2022-08-20T12:18:29;23.00;99.90
59148;DHT22;44930;52.878;6.168;2022-08-20T12:20:56;23.00;99.90
59148;DHT22;44930;52.878;6.168;2022-08-20T12:23:21;23.30;99.90
59148;DHT22;44930;52.878;6.168;2022-08-20T12:25:47;23.40;99.90
59148;DHT22;44930;52.878;6.168;2022-08-20T12:28:13;23.30;99.90
59148;DHT22;44930;52.878;6.168;2022-08-20T12:30:39;23.70;99.90
59148;DHT22;44930;52.878;6.168;2022-08-20T12:33:05;24.10;99.90
59148;DHT22;44930;52.878;6.168;2022-08-20T12:35:31;23.70;99.50
59148;DHT22;44930;52.878;6.168;2022-08-20T12:37:57;24.00;99.90
59148;DHT22;44930;52.878;6.168;2022-08-20T12:40:24;23.80;98.40
59148;DHT22;44930;52.878;6.168;2022-08-20T12:42:50;24.70;97.00
59148;DHT22;44930;52.878;6.168;2022-08-20T12:45:16;24.20;97.30
59148;DHT22;44930;52.878;6.168;2022-08-20T12:47:44;24.40;97.50
59148;DHT22;44930;52.878;6.168;2022-08-20T12:50:17;26.30;96.50
59148;DHT22;44930;52.878;6.168;2022-08-20T12:52:44;25.20;96.60
59148;DHT22;44930;52.878;6.168;2022-08-20T12:55:12;25.60;95.90
59148;DHT22;44930;52.878;6.168;2022-08-20T12:57:40;26.10;96.40
59148;DHT22;44930;52.878;6.168;2022-08-20T13:00:09;25.50;96.40
59148;DHT22;44930;52.878;6.168;2022-08-20T13:02:35;25.90;96.30
59148;DHT22;44930;52.878;6.168;2022-08-20T13:05:03;25.70;95.90
59148;DHT22;44930;52.878;6.168;2022-08-20T13:07:30;26.00;95.10
59148;DHT22;44930;52.878;6.168;2022-08-20T13:09:55;25.70;93.80
59148;DHT22;44930;52.878;6.168;2022-08-20T13:12:21;25.80;94.90
59148;DHT22;44930;52.878;6.168;2022-08-20T13:14:46;26.30;95.10
59148;DHT22;44930;52.878;6.168;2022-08-20T13:17:15;26.00;95.00
59148;DHT22;44930;52.878;6.168;2022-08-20T13:19:41;26.70;95.80
59148;DHT22;44930;52.878;6.168;2022-08-20T13:22:10;27.40;95.30
59148;DHT22;44930;52.878;6.168;2022-08-20T13:24:36;27.10;95.60
59148;DHT22;44930;52.878;6.168;2022-08-20T13:27:04;25.30;94.00
59148;DHT22;44930;52.878;6.168;2022-08-20T13:29:30;25.60;94.10
59148;DHT22;44930;52.878;6.168;2022-08-20T13:31:55;25.40;94.70
59148;DHT22;44930;52.878;6.168;2022-08-20T13:34:21;26.80;95.20
59148;DHT22;44930;52.878;6.168;2022-08-20T13:36:47;26.90;94.90
59148;DHT22;44930;52.878;6.168;2022-08-20T13:39:12;25.40;94.50
59148;DHT22;44930;52.878;6.168;2022-08-20T13:41:38;25.30;94.80
59148;DHT22;44930;52.878;6.168;2022-08-20T13:44:03;26.40;95.00
59148;DHT22;44930;52.878;6.168;2022-08-20T13:46:29;26.70;95.30
59148;DHT22;44930;52.878;6.168;2022-08-20T13:48:54;25.70;94.30
59148;DHT22;44930;52.878;6.168;2022-08-20T13:51:20;27.60;94.50
59148;DHT22;44930;52.878;6.168;2022-08-20T13:53:45;25.50;93.60
59148;DHT22;44930;52.878;6.168;2022-08-20T13:56:11;27.10;94.70
59148;DHT22;44930;52.878;6.168;2022-08-20T13:58:37;27.60;94.40
59148;DHT22;44930;52.878;6.168;2022-08-20T14:01:02;25.00;93.90
59148;DHT22;44930;52.878;6.168;2022-08-20T14:03:28;25.10;94.30
59148;DHT22;44930;52.878;6.168;2022-08-20T14:05:53;24.90;94.20
59148;DHT22;44930;52.878;6.168;2022-08-20T14:08:22;24.60;94.40
59148;DHT22;44930;52.878;6.168;2022-08-20T14:10:48;24.80;94.70
59148;DHT22;44930;52.878;6.168;2022-08-20T14:13:16;24.80;94.80
59148;DHT22;44930;52.878;6.168;2022-08-20T14:15:43;25.70;94.20
59148;DHT22;44930;52.878;6.168;2022-08-20T14:18:09;27.10;94.70
59148;DHT22;44930;52.878;6.168;2022-08-20T14:20:34;27.40;94.30
59148;DHT22;44930;52.878;6.168;2022-08-20T14:23:01;25.60;92.90
59148;DHT22;44930;52.878;6.168;2022-08-20T14:25:28;26.20;93.20
59148;DHT22;44930;52.878;6.168;2022-08-20T14:27:53;25.80;92.10
59148;DHT22;44930;52.878;6.168;2022-08-20T14:30:25;26.40;91.80
59148;DHT22;44930;52.878;6.168;2022-08-20T14:32:52;25.20;92.60
59148;DHT22;44930;52.878;6.168;2022-08-20T14:35:18;25.30;93.20
59148;DHT22;44930;52.878;6.168;2022-08-20T14:37:50;24.70;93.80
59148;DHT22;44930;52.878;6.168;2022-08-20T14:40:18;25.00;93.60
59148;DHT22;44930;52.878;6.168;2022-08-20T14:42:44;25.10;92.50
59148;DHT22;44930;52.878;6.168;2022-08-20T14:45:12;25.20;93.30
59148;DHT22;44930;52.878;6.168;2022-08-20T14:47:44;25.40;92.80
59148;DHT22;44930;52.878;6.168;2022-08-20T14:50:19;25.00;93.60
59148;DHT22;44930;52.878;6.168;2022-08-20T14:52:45;25.60;92.80
59148;DHT22;44930;52.878;6.168;2022-08-20T14:55:13;25.70;93.10
59148;DHT22;44930;52.878;6.168;2022-08-20T14:57:39;25.90;92.90
59148;DHT22;44930;52.878;6.168;2022-08-20T15:00:08;25.60;92.10
59148;DHT22;44930;52.878;6.168;2022-08-20T15:02:35;25.60;92.60
59148;DHT22;44930;52.878;6.168;2022-08-20T15:05:02;26.20;93.00
59148;DHT22;44930;52.878;6.168;2022-08-20T15:07:30;26.30;92.70
59148;DHT22;44930;52.878;6.168;2022-08-20T15:09:57;26.40;92.40
59148;DHT22;44930;52.878;6.168;2022-08-20T15:12:23;26.30;92.30
59148;DHT22;44930;52.878;6.168;2022-08-20T15:14:49;26.30;92.60
59148;DHT22;44930;52.878;6.168;2022-08-20T15:17:23;27.70;93.00
59148;DHT22;44930;52.878;6.168;2022-08-20T15:19:50;26.50;92.00
59148;DHT22;44930;52.878;6.168;2022-08-20T15:22:16;27.00;92.30
59148;DHT22;44930;52.878;6.168;2022-08-20T15:24:42;28.00;92.10
59148;DHT22;44930;52.878;6.168;2022-08-20T15:27:12;26.50;91.60
59148;DHT22;44930;52.878;6.168;2022-08-20T15:29:39;26.90;92.10
59148;DHT22;44930;52.878;6.168;2022-08-20T15:32:05;28.80;92.30
59148;DHT22;44930;52.878;6.168;2022-08-20T15:34:31;27.40;90.80
59148;DHT22;44930;52.878;6.168;2022-08-20T15:36:59;26.80;91.40
59148;DHT22;44930;52.878;6.168;2022-08-20T15:39:30;27.10;90.10